sensor_id;sensor_type;location;lat;lon;timestamp;pressure;altitude;pressure_sealevel;temperature;humidity
75409;BME280;63979;55.644;37.734;2023-11-21T00:02:05;99731.03;;;-5.24;59.36
75409;BME280;63979;55.644;37.734;2023-11-21T00:07:06;99737.06;;;-5.13;59.46
75409;BME280;63979;55.644;37.734;2023-11-21T00:12:08;99731.88;;;-5.14;59.31
75409;BME280;63979;55.644;37.734;2023-11-21T00:17:11;99736.13;;;-5.06;59.45
75409;BME280;63979;55.644;37.734;2023-11-21T00:22:12;99722.22;;;-5.03;59.31
75409;BME280;63979;55.644;37.734;2023-11-21T00:27:13;99730.91;;;-5.04;58.50
75409;BME280;63979;55.644;37.734;2023-11-21T00:32:14;99739.69;;;-5.16;58.32
75409;BME280;63979;55.644;37.734;2023-11-21T00:37:15;99740.66;;;-5.35;58.43
75409;BME280;63979;55.644;37.734;2023-11-21T00:42:16;99731.03;;;-5.21;58.11
75409;BME280;63979;55.644;37.734;2023-11-21T00:47:17;99735.34;;;-5.17;58.70
75409;BME280;63979;55.644;37.734;2023-11-21T00:52:18;99718.03;;;-5.25;58.86
75409;BME280;63979;55.644;37.734;2023-11-21T00:57:18;99731.88;;;-5.22;58.83
75409;BME280;63979;55.644;37.734;2023-11-21T01:02:20;99724.13;;;-5.28;58.25
75409;BME280;63979;55.644;37.734;2023-11-21T01:07:20;99726.69;;;-5.17;58.70
75409;BME280;63979;55.644;37.734;2023-11-21T01:12:21;99729.25;;;-5.13;58.23
75409;BME280;63979;55.644;37.734;2023-11-21T01:17:22;99731.84;;;-5.11;58.62
75409;BME280;63979;55.644;37.734;2023-11-21T01:22:23;99725.72;;;-5.04;58.30
75409;BME280;63979;55.644;37.734;2023-11-21T01:27:26;99719.66;;;-5.05;57.95
75409;BME280;63979;55.644;37.734;2023-11-21T01:32:27;99710.22;;;-5.19;58.06
75409;BME280;63979;55.644;37.734;2023-11-21T01:37:29;99725.84;;;-5.25;58.73
75409;BME280;63979;55.644;37.734;2023-11-21T01:42:30;99729.41;;;-5.39;58.75
75409;BME280;63979;55.644;37.734;2023-11-21T01:47:33;99734.66;;;-5.45;58.54
75409;BME280;63979;55.644;37.734;2023-11-21T01:52:35;99730.34;;;-5.49;58.89
75409;BME280;63979;55.644;37.734;2023-11-21T01:57:36;99738.03;;;-5.30;59.09
75409;BME280;63979;55.644;37.734;2023-11-21T02:02:40;99733.63;;;-5.21;58.26
75409;BME280;63979;55.644;37.734;2023-11-21T02:07:43;99731.03;;;-5.19;58.05
75409;BME280;63979;55.644;37.734;2023-11-21T02:12:44;99685.34;;;-5.61;58.75
75409;BME280;63979;55.644;37.734;2023-11-21T02:17:49;99721.53;;;-5.28;58.48
75409;BME280;63979;55.644;37.734;2023-11-21T02:22:56;99722.34;;;-5.18;58.17
75409;BME280;63979;55.644;37.734;2023-11-21T02:28:01;99728.47;;;-5.27;57.95
75409;BME280;63979;55.644;37.734;2023-11-21T02:33:03;99734.56;;;-5.29;58.05
75409;BME280;63979;55.644;37.734;2023-11-21T02:38:04;99727.56;;;-5.21;57.89
75409;BME280;63979;55.644;37.734;2023-11-21T02:43:04;99705.97;;;-5.36;57.71
75409;BME280;63979;55.644;37.734;2023-11-21T02:48:06;99726.75;;;-5.31;58.05
75409;BME280;63979;55.644;37.734;2023-11-21T02:53:07;99724.31;;;-5.52;58.04
75409;BME280;63979;55.644;37.734;2023-11-21T02:58:08;99745.03;;;-5.42;57.33
75409;BME280;63979;55.644;37.734;2023-11-21T03:03:09;99767.53;;;-5.38;57.39
75409;BME280;63979;55.644;37.734;2023-11-21T03:08:10;99773.53;;;-5.25;57.41
75409;BME280;63979;55.644;37.734;2023-11-21T03:13:11;99774.38;;;-5.21;57.54
75409;BME280;63979;55.644;37.734;2023-11-21T03:18:11;99766.59;;;-5.20;56.46
75409;BME280;63979;55.644;37.734;2023-11-21T03:23:13;99764.84;;;-5.22;56.20
75409;BME280;63979;55.644;37.734;2023-11-21T03:28:15;99770.94;;;-5.20;55.96
75409;BME280;63979;55.644;37.734;2023-11-21T03:33:16;99773.63;;;-5.37;56.07
75409;BME280;63979;55.644;37.734;2023-11-21T03:38:17;99788.28;;;-5.25;56.23
75409;BME280;63979;55.644;37.734;2023-11-21T03:43:18;99788.25;;;-5.18;56.35
75409;BME280;63979;55.644;37.734;2023-11-21T03:48:19;99791.72;;;-5.17;55.74
75409;BME280;63979;55.644;37.734;2023-11-21T03:53:20;99790.00;;;-5.23;55.14
75409;BME280;63979;55.644;37.734;2023-11-21T03:58:21;99789.13;;;-5.22;55.49
75409;BME280;63979;55.644;37.734;2023-11-21T04:03:22;99791.72;;;-5.22;55.60
75409;BME280;63979;55.644;37.734;2023-11-21T04:08:23;99802.22;;;-5.39;55.85
75409;BME280;63979;55.644;37.734;2023-11-21T04:13:23;99793.59;;;-5.44;56.15
75409;BME280;63979;55.644;37.734;2023-11-21T04:18:24;99789.25;;;-5.46;56.37
75409;BME280;63979;55.644;37.734;2023-11-21T04:23:25;99782.34;;;-5.46;56.72
75409;BME280;63979;55.644;37.734;2023-11-21T04:28:26;99781.44;;;-5.42;57.16
75409;BME280;63979;55.644;37.734;2023-11-21T04:33:27;99790.09;;;-5.41;56.90
75409;BME280;63979;55.644;37.734;2023-11-21T04:38:28;99784.91;;;-5.43;56.77
75409;BME280;63979;55.644;37.734;2023-11-21T04:43:29;99794.47;;;-5.48;57.32
75409;BME280;63979;55.644;37.734;2023-11-21T04:48:30;99810.06;;;-5.43;57.20
75409;BME280;63979;55.644;37.734;2023-11-21T04:53:31;99804.00;;;-5.44;57.59
75409;BME280;63979;55.644;37.734;2023-11-21T04:58:31;99807.47;;;-5.45;57.76
75409;BME280;63979;55.644;37.734;2023-11-21T05:03:33;99810.03;;;-5.42;57.61
75409;BME280;63979;55.644;37.734;2023-11-21T05:08:34;99772.84;;;-5.54;57.42
75409;BME280;63979;55.644;37.734;2023-11-21T05:13:34;99810.88;;;-5.37;57.43
75409;BME280;63979;55.644;37.734;2023-11-21T05:18:35;99820.44;;;-5.42;58.00
75409;BME280;63979;55.644;37.734;2023-11-21T05:23:36;99818.75;;;-5.58;57.68
75409;BME280;63979;55.644;37.734;2023-11-21T05:28:37;99830.00;;;-5.48;57.54
75409;BME280;63979;55.644;37.734;2023-11-21T05:33:38;99830.88;;;-5.48;57.84
75409;BME280;63979;55.644;37.734;2023-11-21T05:38:39;99825.63;;;-5.37;57.74
75409;BME280;63979;55.644;37.734;2023-11-21T05:43:40;99811.78;;;-5.41;58.36
75409;BME280;63979;55.644;37.734;2023-11-21T05:48:41;99837.75;;;-5.35;59.98
75409;BME280;63979;55.644;37.734;2023-11-21T05:53:42;99836.84;;;-5.27;59.92
75409;BME280;63979;55.644;37.734;2023-11-21T05:58:43;99840.31;;;-5.31;58.99
75409;BME280;63979;55.644;37.734;2023-11-21T06:03:44;99845.53;;;-5.31;59.33
75409;BME280;63979;55.644;37.734;2023-11-21T06:08:46;99844.69;;;-5.37;59.40
75409;BME280;63979;55.644;37.734;2023-11-21T06:13:47;99853.34;;;-5.31;59.89
75409;BME280;63979;55.644;37.734;2023-11-21T06:18:48;99826.50;;;-5.40;59.86
75409;BME280;63979;55.644;37.734;2023-11-21T06:23:49;99877.53;;;-5.08;59.48
75409;BME280;63979;55.644;37.734;2023-11-21T06:28:50;99873.09;;;-4.94;58.84
75409;BME280;63979;55.644;37.734;2023-11-21T06:33:51;99810.75;;;-5.09;58.65
75409;BME280;63979;55.644;37.734;2023-11-21T06:38:53;99865.16;;;-4.71;58.42
75409;BME280;63979;55.644;37.734;2023-11-21T06:43:54;99849.63;;;-4.80;58.09
75409;BME280;63979;55.644;37.734;2023-11-21T06:48:55;99869.28;;;-4.38;57.50
75409;BME280;63979;55.644;37.734;2023-11-21T06:53:56;99869.91;;;-4.09;56.76
75409;BME280;63979;55.644;37.734;2023-11-21T06:58:57;99870.59;;;-3.90;56.16
75409;BME280;63979;55.644;37.734;2023-11-21T07:03:57;99858.44;;;-3.91;55.28
75409;BME280;63979;55.644;37.734;2023-11-21T07:08:58;99864.56;;;-3.95;55.57
75409;BME280;63979;55.644;37.734;2023-11-21T07:14:00;99868.97;;;-4.01;55.52
75409;BME280;63979;55.644;37.734;2023-11-21T07:19:06;99818.91;;;-4.37;55.34
75409;BME280;63979;55.644;37.734;2023-11-21T07:24:08;99854.19;;;-4.01;54.24
75409;BME280;63979;55.644;37.734;2023-11-21T07:29:09;99865.09;;;-3.61;53.73
75409;BME280;63979;55.644;37.734;2023-11-21T07:34:12;99867.97;;;-3.08;52.41
75409;BME280;63979;55.644;37.734;2023-11-21T07:39:12;99878.16;;;-2.90;51.16
75409;BME280;63979;55.644;37.734;2023-11-21T07:44:16;99873.47;;;-2.65;50.74
75409;BME280;63979;55.644;37.734;2023-11-21T07:49:20;99857.44;;;-2.41;49.52
75409;BME280;63979;55.644;37.734;2023-11-21T07:54:23;99860.91;;;-2.40;49.07
75409;BME280;63979;55.644;37.734;2023-11-21T07:59:24;99849.78;;;-2.55;49.46
75409;BME280;63979;55.644;37.734;2023-11-21T08:04:25;99857.63;;;-2.55;50.43
75409;BME280;63979;55.644;37.734;2023-11-21T08:09:25;99847.28;;;-2.62;49.19
75409;BME280;63979;55.644;37.734;2023-11-21T08:14:26;99860.59;;;-2.80;49.66
75409;BME280;63979;55.644;37.734;2023-11-21T08:19:27;99857.63;;;-2.55;49.05
75409;BME280;63979;55.644;37.734;2023-11-21T08:24:28;99868.47;;;-2.84;49.39
75409;BME280;63979;55.644;37.734;2023-11-21T08:29:28;99857.09;;;-2.79;49.96
75409;BME280;63979;55.644;37.734;2023-11-21T08:34:29;99855.22;;;-2.67;50.24
75409;BME280;63979;55.644;37.734;2023-11-21T08:39:30;99868.16;;;-2.61;49.50
75409;BME280;63979;55.644;37.734;2023-11-21T08:44:31;99860.38;;;-2.64;49.61
75409;BME280;63979;55.644;37.734;2023-11-21T08:49:32;99858.50;;;-2.54;48.69
75409;BME280;63979;55.644;37.734;2023-11-21T08:54:32;99876.69;;;-1.94;48.31
75409;BME280;63979;55.644;37.734;2023-11-21T08:59:34;99872.53;;;-1.57;45.99
75409;BME280;63979;55.644;37.734;2023-11-21T09:04:35;99879.63;;;-2.14;46.79
75409;BME280;63979;55.644;37.734;2023-11-21T09:09:36;99875.44;;;-2.23;47.76
75409;BME280;63979;55.644;37.734;2023-11-21T09:14:36;99871.72;;;-2.11;46.52
75409;BME280;63979;55.644;37.734;2023-11-21T09:19:38;99858.63;;;-2.08;46.24
75409;BME280;63979;55.644;37.734;2023-11-21T09:24:39;99854.72;;;-2.35;46.65
75409;BME280;63979;55.644;37.734;2023-11-21T09:29:40;99879.94;;;-2.32;47.11
75409;BME280;63979;55.644;37.734;2023-11-21T09:34:40;99896.88;;;-2.59;48.25
75409;BME280;63979;55.644;37.734;2023-11-21T09:39:42;99889.59;;;-2.99;48.73
75409;BME280;63979;55.644;37.734;2023-11-21T09:50:07;99906.25;;;-3.07;49.14
75409;BME280;63979;55.644;37.734;2023-11-21T09:55:10;99886.41;;;-3.24;50.06
75409;BME280;63979;55.644;37.734;2023-11-21T10:00:16;99846.97;;;-3.73;51.11
75409;BME280;63979;55.644;37.734;2023-11-21T10:05:19;99890.16;;;-3.44;51.10
75409;BME280;63979;55.644;37.734;2023-11-21T10:10:20;99873.78;;;-3.62;51.13
75409;BME280;63979;55.644;37.734;2023-11-21T10:15:23;99900.63;;;-3.51;52.50
75409;BME280;63979;55.644;37.734;2023-11-21T10:20:26;99903.50;;;-3.75;52.19
75409;BME280;63979;55.644;37.734;2023-11-21T10:25:27;99896.53;;;-3.74;52.89
75409;BME280;63979;55.644;37.734;2023-11-21T10:30:32;99900.13;;;-3.88;53.60
75409;BME280;63979;55.644;37.734;2023-11-21T10:35:53;99891.41;;;-3.85;52.77
75409;BME280;63979;55.644;37.734;2023-11-21T10:40:55;99891.38;;;-3.79;54.39
75409;BME280;63979;55.644;37.734;2023-11-21T10:45:58;99844.81;;;-4.22;54.05
75409;BME280;63979;55.644;37.734;2023-11-21T10:50:59;99895.88;;;-3.98;54.07
75409;BME280;63979;55.644;37.734;2023-11-21T10:56:09;99895.88;;;-3.98;55.06
75409;BME280;63979;55.644;37.734;2023-11-21T11:01:18;99844.16;;;-4.45;54.26
75409;BME280;63979;55.644;37.734;2023-11-21T11:06:23;99898.53;;;-4.02;54.89
75409;BME280;63979;55.644;37.734;2023-11-21T11:11:26;99855.22;;;-4.16;54.65
75409;BME280;63979;55.644;37.734;2023-11-21T11:16:27;99920.06;;;-3.84;54.46
75409;BME280;63979;55.644;37.734;2023-11-21T11:26:56;99916.53;;;-3.73;54.13
75409;BME280;63979;55.644;37.734;2023-11-21T11:37:12;99927.59;;;-3.52;53.26
75409;BME280;63979;55.644;37.734;2023-11-21T11:42:15;99926.88;;;-3.66;53.18
75409;BME280;63979;55.644;37.734;2023-11-21T11:47:31;99918.13;;;-3.62;53.20
75409;BME280;63979;55.644;37.734;2023-11-21T11:52:41;99930.22;;;-3.53;52.45
75409;BME280;63979;55.644;37.734;2023-11-21T11:57:44;99926.81;;;-3.61;52.72
75409;BME280;63979;55.644;37.734;2023-11-21T12:02:54;99926.16;;;-3.85;53.52
75409;BME280;63979;55.644;37.734;2023-11-21T12:07:58;99930.41;;;-3.73;53.30
75409;BME280;63979;55.644;37.734;2023-11-21T12:13:01;99892.28;;;-3.86;52.67
75409;BME280;63979;55.644;37.734;2023-11-21T12:18:03;99941.72;;;-3.74;53.29
75409;BME280;63979;55.644;37.734;2023-11-21T12:23:05;99946.28;;;-3.99;53.79
75409;BME280;63979;55.644;37.734;2023-11-21T12:28:06;99927.16;;;-3.98;55.00
75409;BME280;63979;55.644;37.734;2023-11-21T12:33:06;99934.06;;;-3.95;55.23
75409;BME280;63979;55.644;37.734;2023-11-21T12:38:09;99943.72;;;-4.06;56.07
75409;BME280;63979;55.644;37.734;2023-11-21T12:43:10;99957.69;;;-4.18;55.87
75409;BME280;63979;55.644;37.734;2023-11-21T12:48:11;99955.97;;;-4.21;56.33
75409;BME280;63979;55.644;37.734;2023-11-21T12:53:12;99961.19;;;-4.15;55.98
75409;BME280;63979;55.644;37.734;2023-11-21T12:58:13;99910.97;;;-4.38;56.14
75409;BME280;63979;55.644;37.734;2023-11-21T13:03:16;99959.44;;;-4.19;56.43
75409;BME280;63979;55.644;37.734;2023-11-21T13:08:20;99917.22;;;-4.68;57.27
75409;BME280;63979;55.644;37.734;2023-11-21T13:13:23;99975.28;;;-4.54;58.31
75409;BME280;63979;55.644;37.734;2023-11-21T13:18:28;99971.03;;;-4.72;58.51
75409;BME280;63979;55.644;37.734;2023-11-21T13:23:29;99976.19;;;-4.59;58.92
75409;BME280;63979;55.644;37.734;2023-11-21T13:28:30;99986.59;;;-4.59;60.23
75409;BME280;63979;55.644;37.734;2023-11-21T13:33:33;99993.53;;;-4.57;59.62
75409;BME280;63979;55.644;37.734;2023-11-21T13:38:38;100000.50;;;-4.60;58.73
75409;BME280;63979;55.644;37.734;2023-11-21T13:43:42;99987.50;;;-4.66;58.70
75409;BME280;63979;55.644;37.734;2023-11-21T13:48:49;99948.56;;;-4.91;59.25
75409;BME280;63979;55.644;37.734;2023-11-21T13:54:02;100002.22;;;-4.58;59.00
75409;BME280;63979;55.644;37.734;2023-11-21T13:59:05;99971.97;;;-4.80;59.38
75409;BME280;63979;55.644;37.734;2023-11-21T14:04:27;100017.00;;;-4.64;58.79
75409;BME280;63979;55.644;37.734;2023-11-21T14:09:27;100025.69;;;-4.65;58.57
75409;BME280;63979;55.644;37.734;2023-11-21T14:14:36;99976.34;;;-4.97;58.08
75409;BME280;63979;55.644;37.734;2023-11-21T14:19:37;100025.72;;;-4.72;58.34
75409;BME280;63979;55.644;37.734;2023-11-21T14:24:41;100017.97;;;-4.84;58.95
75409;BME280;63979;55.644;37.734;2023-11-21T14:29:47;100048.22;;;-4.58;58.21
75409;BME280;63979;55.644;37.734;2023-11-21T14:34:49;100043.00;;;-4.54;57.26
75409;BME280;63979;55.644;37.734;2023-11-21T14:39:50;100053.41;;;-4.48;56.25
75409;BME280;63979;55.644;37.734;2023-11-21T14:44:51;100026.53;;;-4.59;56.03
75409;BME280;63979;55.644;37.734;2023-11-21T14:49:52;100056.88;;;-4.46;56.02
75409;BME280;63979;55.644;37.734;2023-11-21T14:54:53;100053.38;;;-4.43;56.42
75409;BME280;63979;55.644;37.734;2023-11-21T15:00:14;100064.69;;;-4.52;56.08
75409;BME280;63979;55.644;37.734;2023-11-21T15:05:33;100025.72;;;-4.72;56.69
75409;BME280;63979;55.644;37.734;2023-11-21T15:10:35;100064.72;;;-4.56;57.51
75409;BME280;63979;55.644;37.734;2023-11-21T15:15:46;100086.44;;;-4.60;58.74
75409;BME280;63979;55.644;37.734;2023-11-21T15:20:47;100088.16;;;-4.58;59.31
75409;BME280;63979;55.644;37.734;2023-11-21T15:25:49;100069.09;;;-4.67;59.03
75409;BME280;63979;55.644;37.734;2023-11-21T15:30:50;100094.28;;;-4.74;58.51
75409;BME280;63979;55.644;37.734;2023-11-21T15:35:52;100086.50;;;-4.83;58.58
75409;BME280;63979;55.644;37.734;2023-11-21T15:40:54;100070.94;;;-5.06;58.43
75409;BME280;63979;55.644;37.734;2023-11-21T15:45:55;100083.03;;;-4.96;57.88
75409;BME280;63979;55.644;37.734;2023-11-21T15:50:56;100081.34;;;-5.12;57.93
75409;BME280;63979;55.644;37.734;2023-11-21T15:55:58;100082.22;;;-5.22;59.02
75409;BME280;63979;55.644;37.734;2023-11-21T16:00:59;100083.94;;;-5.27;58.57
75409;BME280;63979;55.644;37.734;2023-11-21T16:05:59;100083.09;;;-5.40;58.91
75409;BME280;63979;55.644;37.734;2023-11-21T16:11:00;100066.63;;;-5.47;58.66
75409;BME280;63979;55.644;37.734;2023-11-21T16:16:01;100077.91;;;-5.46;58.56
75409;BME280;63979;55.644;37.734;2023-11-21T16:21:02;100089.16;;;-5.41;59.39
75409;BME280;63979;55.644;37.734;2023-11-21T16:26:03;100088.28;;;-5.39;59.13
75409;BME280;63979;55.644;37.734;2023-11-21T16:31:05;100078.75;;;-5.29;59.00
75409;BME280;63979;55.644;37.734;2023-11-21T16:36:06;100074.41;;;-5.31;59.36
75409;BME280;63979;55.644;37.734;2023-11-21T16:41:07;100053.63;;;-5.41;59.11
75409;BME280;63979;55.644;37.734;2023-11-21T16:46:12;100048.44;;;-5.50;58.98
75409;BME280;63979;55.644;37.734;2023-11-21T16:51:17;100103.91;;;-5.32;58.77
75409;BME280;63979;55.644;37.734;2023-11-21T16:56:18;100096.09;;;-5.43;59.63
75409;BME280;63979;55.644;37.734;2023-11-21T17:01:18;100114.31;;;-5.36;60.08
75409;BME280;63979;55.644;37.734;2023-11-21T17:06:20;100107.38;;;-5.37;59.42
75409;BME280;63979;55.644;37.734;2023-11-21T17:11:21;100104.78;;;-5.47;58.97
75409;BME280;63979;55.644;37.734;2023-11-21T17:16:22;100103.91;;;-5.48;59.29
75409;BME280;63979;55.644;37.734;2023-11-21T17:21:23;100105.59;;;-5.56;59.83
75409;BME280;63979;55.644;37.734;2023-11-21T17:26:24;100095.25;;;-5.53;58.65
75409;BME280;63979;55.644;37.734;2023-11-21T17:31:24;100110.84;;;-5.53;58.36
75409;BME280;63979;55.644;37.734;2023-11-21T17:36:25;100101.31;;;-5.54;58.82
75409;BME280;63979;55.644;37.734;2023-11-21T17:41:26;100108.22;;;-5.62;58.75
75409;BME280;63979;55.644;37.734;2023-11-21T17:46:27;100109.94;;;-5.58;59.29
75409;BME280;63979;55.644;37.734;2023-11-21T17:51:28;100090.88;;;-5.83;58.56
75409;BME280;63979;55.644;37.734;2023-11-21T17:56:30;100111.66;;;-5.80;58.80
75409;BME280;63979;55.644;37.734;2023-11-21T18:01:35;100117.72;;;-5.79;59.52
75409;BME280;63979;55.644;37.734;2023-11-21T18:06:38;100078.72;;;-6.01;59.15
75409;BME280;63979;55.644;37.734;2023-11-21T18:11:39;100116.84;;;-5.81;59.92
75409;BME280;63979;55.644;37.734;2023-11-21T18:16:40;100115.97;;;-5.94;59.74
75409;BME280;63979;55.644;37.734;2023-11-21T18:21:42;100117.72;;;-5.93;59.59
75409;BME280;63979;55.644;37.734;2023-11-21T18:26:43;100118.56;;;-6.03;59.88
75409;BME280;63979;55.644;37.734;2023-11-21T18:31:45;100135.88;;;-5.99;59.96
75409;BME280;63979;55.644;37.734;2023-11-21T18:36:45;100135.88;;;-6.02;60.21
75409;BME280;63979;55.644;37.734;2023-11-21T18:41:46;100118.53;;;-6.12;60.33
75409;BME280;63979;55.644;37.734;2023-11-21T18:46:47;100121.09;;;-6.21;60.34
75409;BME280;63979;55.644;37.734;2023-11-21T18:51:48;100129.75;;;-6.21;60.28
75409;BME280;63979;55.644;37.734;2023-11-21T18:56:49;100121.91;;;-6.32;59.87
75409;BME280;63979;55.644;37.734;2023-11-21T19:01:49;100068.97;;;-6.66;60.24
75409;BME280;63979;55.644;37.734;2023-11-21T19:06:50;100058.53;;;-6.79;60.36
75409;BME280;63979;55.644;37.734;2023-11-21T19:11:53;100127.94;;;-6.42;60.44
75409;BME280;63979;55.644;37.734;2023-11-21T19:16:53;100133.97;;;-6.47;60.67
75409;BME280;63979;55.644;37.734;2023-11-21T19:21:54;100122.72;;;-6.46;60.63
75409;BME280;63979;55.644;37.734;2023-11-21T19:26:55;100120.91;;;-6.60;60.99
75409;BME280;63979;55.644;37.734;2023-11-21T19:31:58;100140.00;;;-6.51;61.10
75409;BME280;63979;55.644;37.734;2023-11-21T19:36:59;100124.41;;;-6.54;61.08
75409;BME280;63979;55.644;37.734;2023-11-21T19:42:00;100140.03;;;-6.50;60.71
75409;BME280;63979;55.644;37.734;2023-11-21T19:47:02;100120.06;;;-6.58;60.99
75409;BME280;63979;55.644;37.734;2023-11-21T19:52:03;100146.97;;;-6.44;60.80
75409;BME280;63979;55.644;37.734;2023-11-21T19:57:06;100143.53;;;-6.36;60.73
75409;BME280;63979;55.644;37.734;2023-11-21T20:02:09;100136.59;;;-6.43;60.99
75409;BME280;63979;55.644;37.734;2023-11-21T20:07:10;100098.41;;;-6.64;60.63
75409;BME280;63979;55.644;37.734;2023-11-21T20:12:11;100118.41;;;-6.47;61.13
75409;BME280;63979;55.644;37.734;2023-11-21T20:17:12;100153.06;;;-6.35;61.06
75409;BME280;63979;55.644;37.734;2023-11-21T20:22:15;100158.28;;;-6.29;61.03
75409;BME280;63979;55.644;37.734;2023-11-21T20:27:18;100127.91;;;-6.46;60.72
75409;BME280;63979;55.644;37.734;2023-11-21T20:32:19;100159.16;;;-6.28;61.22
75409;BME280;63979;55.644;37.734;2023-11-21T20:37:24;100156.53;;;-6.28;60.98
75409;BME280;63979;55.644;37.734;2023-11-21T20:42:25;100173.94;;;-6.19;61.23
75409;BME280;63979;55.644;37.734;2023-11-21T20:47:26;100126.25;;;-6.28;60.82
75409;BME280;63979;55.644;37.734;2023-11-21T20:52:27;100167.91;;;-6.05;60.09
75409;BME280;63979;55.644;37.734;2023-11-21T20:57:28;100167.03;;;-6.08;60.14
75409;BME280;63979;55.644;37.734;2023-11-21T21:02:29;100162.69;;;-6.14;59.96
75409;BME280;63979;55.644;37.734;2023-11-21T21:07:30;100177.41;;;-6.11;60.98
75409;BME280;63979;55.644;37.734;2023-11-21T21:12:31;100180.00;;;-6.11;60.35
75409;BME280;63979;55.644;37.734;2023-11-21T21:17:33;100183.47;;;-6.14;60.68
75409;BME280;63979;55.644;37.734;2023-11-21T21:22:38;100174.81;;;-6.10;60.92
75409;BME280;63979;55.644;37.734;2023-11-21T21:27:41;100194.72;;;-6.15;61.21
75409;BME280;63979;55.644;37.734;2023-11-21T21:32:43;100185.19;;;-6.19;60.83
75409;BME280;63979;55.644;37.734;2023-11-21T21:37:46;100189.44;;;-6.32;61.39
75409;BME280;63979;55.644;37.734;2023-11-21T21:42:47;100199.78;;;-6.36;61.62
75409;BME280;63979;55.644;37.734;2023-11-21T21:47:50;100191.13;;;-6.37;62.28
75409;BME280;63979;55.644;37.734;2023-11-21T21:52:53;100187.59;;;-6.54;62.36
75409;BME280;63979;55.644;37.734;2023-11-21T21:57:56;100150.25;;;-6.73;63.31
75409;BME280;63979;55.644;37.734;2023-11-21T22:02:58;100173.81;;;-6.39;62.50
75409;BME280;63979;55.644;37.734;2023-11-21T22:07:59;100162.56;;;-6.38;62.60
75409;BME280;63979;55.644;37.734;2023-11-21T22:13:00;100173.88;;;-6.27;62.31
75409;BME280;63979;55.644;37.734;2023-11-21T22:18:01;100178.19;;;-6.26;62.13
75409;BME280;63979;55.644;37.734;2023-11-21T22:23:02;100183.38;;;-6.28;61.95
75409;BME280;63979;55.644;37.734;2023-11-21T22:28:02;100173.81;;;-6.39;62.00
75409;BME280;63979;55.644;37.734;2023-11-21T22:33:03;100181.56;;;-6.45;63.49
75409;BME280;63979;55.644;37.734;2023-11-21T22:38:04;100187.63;;;-6.45;63.18
75409;BME280;63979;55.644;37.734;2023-11-21T22:43:05;100190.22;;;-6.49;62.95
75409;BME280;63979;55.644;37.734;2023-11-21T22:48:06;100190.25;;;-6.40;63.30
75409;BME280;63979;55.644;37.734;2023-11-21T22:53:06;100198.03;;;-6.42;63.14
75409;BME280;63979;55.644;37.734;2023-11-21T22:58:07;100205.00;;;-6.33;62.61
75409;BME280;63979;55.644;37.734;2023-11-21T23:03:09;100201.53;;;-6.34;62.53
75409;BME280;63979;55.644;37.734;2023-11-21T23:08:10;100213.59;;;-6.43;62.87
75409;BME280;63979;55.644;37.734;2023-11-21T23:13:11;100199.72;;;-6.53;62.61
75409;BME280;63979;55.644;37.734;2023-11-21T23:18:12;100223.91;;;-6.57;63.01
75409;BME280;63979;55.644;37.734;2023-11-21T23:23:13;100214.28;;;-6.72;63.20
75409;BME280;63979;55.644;37.734;2023-11-21T23:28:14;100215.16;;;-6.70;63.78
75409;BME280;63979;55.644;37.734;2023-11-21T23:33:15;100207.38;;;-6.70;63.70
75409;BME280;63979;55.644;37.734;2023-11-21T23:38:16;100217.84;;;-6.57;63.87
75409;BME280;63979;55.644;37.734;2023-11-21T23:43:17;100225.59;;;-6.62;64.03
75409;BME280;63979;55.644;37.734;2023-11-21T23:48:20;100211.75;;;-6.60;63.61
75409;BME280;63979;55.644;37.734;2023-11-21T23:53:21;100203.94;;;-6.66;63.63
75409;BME280;63979;55.644;37.734;2023-11-21T23:58:22;100223.09;;;-6.48;63.43
